sensor_id;sensor_type;location;lat;lon;timestamp;pressure;altitude;pressure_sealevel;temperature;humidity
57847;BME280;43675;50.030;21.952;2023-09-19T00:00:22;98272.90;;;16.25;84.77
57847;BME280;43675;50.030;21.952;2023-09-19T00:03:09;98269.73;;;16.22;84.85
57847;BME280;43675;50.030;21.952;2023-09-19T00:05:37;98266.74;;;16.21;84.75
57847;BME280;43675;50.030;21.952;2023-09-19T00:08:04;98265.48;;;16.23;84.69
57847;BME280;43675;50.030;21.952;2023-09-19T00:10:33;98260.57;;;16.28;84.69
57847;BME280;43675;50.030;21.952;2023-09-19T00:12:59;98260.16;;;16.32;84.47
57847;BME280;43675;50.030;21.952;2023-09-19T00:15:27;98259.85;;;16.36;84.32
57847;BME280;43675;50.030;21.952;2023-09-19T00:17:54;98259.83;;;16.38;84.20
57847;BME280;43675;50.030;21.952;2023-09-19T00:20:21;98258.59;;;16.41;84.08
57847;BME280;43675;50.030;21.952;2023-09-19T00:22:51;98259.04;;;16.44;83.99
57847;BME280;43675;50.030;21.952;2023-09-19T00:25:18;98259.38;;;16.46;83.94
57847;BME280;43675;50.030;21.952;2023-09-19T00:27:44;98265.02;;;16.49;83.71
57847;BME280;43675;50.030;21.952;2023-09-19T00:30:12;98263.42;;;16.51;83.62
57847;BME280;43675;50.030;21.952;2023-09-19T00:32:38;98261.01;;;16.53;83.48
57847;BME280;43675;50.030;21.952;2023-09-19T00:35:05;98259.10;;;16.55;83.39
57847;BME280;43675;50.030;21.952;2023-09-19T00:37:32;98254.83;;;16.53;83.30
57847;BME280;43675;50.030;21.952;2023-09-19T00:39:59;98253.26;;;16.55;83.26
57847;BME280;43675;50.030;21.952;2023-09-19T00:42:25;98252.50;;;16.58;83.15
57847;BME280;43675;50.030;21.952;2023-09-19T00:44:52;98250.12;;;16.61;83.02
57847;BME280;43675;50.030;21.952;2023-09-19T00:47:19;98243.57;;;16.64;82.88
57847;BME280;43675;50.030;21.952;2023-09-19T00:49:45;98245.05;;;16.68;82.79
57847;BME280;43675;50.030;21.952;2023-09-19T00:52:13;98242.40;;;16.67;82.66
57847;BME280;43675;50.030;21.952;2023-09-19T00:54:40;98233.85;;;16.71;82.58
57847;BME280;43675;50.030;21.952;2023-09-19T00:57:06;98233.34;;;16.75;82.37
57847;BME280;43675;50.030;21.952;2023-09-19T00:59:34;98232.04;;;16.77;82.24
57847;BME280;43675;50.030;21.952;2023-09-19T01:02:02;98228.30;;;16.79;82.10
57847;BME280;43675;50.030;21.952;2023-09-19T01:04:29;98228.91;;;16.79;81.97
57847;BME280;43675;50.030;21.952;2023-09-19T01:06:57;98225.48;;;16.75;81.99
57847;BME280;43675;50.030;21.952;2023-09-19T01:09:24;98219.02;;;16.71;82.09
57847;BME280;43675;50.030;21.952;2023-09-19T01:11:53;98218.19;;;16.69;82.05
57847;BME280;43675;50.030;21.952;2023-09-19T01:17:32;98213.21;;;16.69;82.06
57847;BME280;43675;50.030;21.952;2023-09-19T01:23:11;98205.91;;;16.74;81.85
57847;BME280;43675;50.030;21.952;2023-09-19T01:28:53;98207.84;;;16.81;81.63
57847;BME280;43675;50.030;21.952;2023-09-19T01:31:21;98203.63;;;16.89;81.36
57847;BME280;43675;50.030;21.952;2023-09-19T01:34:01;98202.95;;;16.96;81.17
57847;BME280;43675;50.030;21.952;2023-09-19T01:36:30;98205.77;;;17.02;81.04
57847;BME280;43675;50.030;21.952;2023-09-19T01:38:58;98201.67;;;17.08;80.87
57847;BME280;43675;50.030;21.952;2023-09-19T01:41:33;98201.46;;;17.09;80.76
57847;BME280;43675;50.030;21.952;2023-09-19T01:44:06;98199.35;;;17.09;80.81
57847;BME280;43675;50.030;21.952;2023-09-19T01:46:39;98203.04;;;17.11;80.76
57847;BME280;43675;50.030;21.952;2023-09-19T01:49:24;98196.92;;;17.19;80.53
57847;BME280;43675;50.030;21.952;2023-09-19T01:52:11;98196.62;;;17.29;80.31
57847;BME280;43675;50.030;21.952;2023-09-19T01:54:46;98195.44;;;17.40;80.08
57847;BME280;43675;50.030;21.952;2023-09-19T01:57:25;98199.45;;;17.50;79.71
57847;BME280;43675;50.030;21.952;2023-09-19T01:59:59;98197.33;;;17.60;79.48
57847;BME280;43675;50.030;21.952;2023-09-19T02:02:27;98195.20;;;17.70;79.19
57847;BME280;43675;50.030;21.952;2023-09-19T02:04:55;98194.99;;;17.75;78.93
57847;BME280;43675;50.030;21.952;2023-09-19T02:07:22;98191.30;;;17.78;78.73
57847;BME280;43675;50.030;21.952;2023-09-19T02:09:48;98192.16;;;17.86;78.45
57847;BME280;43675;50.030;21.952;2023-09-19T02:12:15;98189.06;;;17.91;78.27
57847;BME280;43675;50.030;21.952;2023-09-19T02:14:41;98183.86;;;17.90;78.12
57847;BME280;43675;50.030;21.952;2023-09-19T02:17:08;98185.42;;;17.92;77.94
57847;BME280;43675;50.030;21.952;2023-09-19T02:19:34;98185.20;;;17.93;77.83
57847;BME280;43675;50.030;21.952;2023-09-19T02:22:01;98177.98;;;17.94;77.68
57847;BME280;43675;50.030;21.952;2023-09-19T02:24:27;98176.19;;;17.94;77.51
57847;BME280;43675;50.030;21.952;2023-09-19T02:26:54;98175.20;;;17.96;77.34
57847;BME280;43675;50.030;21.952;2023-09-19T02:29:20;98167.44;;;18.04;77.18
57847;BME280;43675;50.030;21.952;2023-09-19T02:31:47;98158.67;;;18.10;76.88
57847;BME280;43675;50.030;21.952;2023-09-19T02:34:13;98155.56;;;18.17;76.76
57847;BME280;43675;50.030;21.952;2023-09-19T02:36:40;98159.13;;;18.23;76.52
57847;BME280;43675;50.030;21.952;2023-09-19T02:39:07;98156.52;;;18.27;76.54
57847;BME280;43675;50.030;21.952;2023-09-19T02:41:33;98153.99;;;18.33;76.38
57847;BME280;43675;50.030;21.952;2023-09-19T02:44:00;98154.19;;;18.40;76.07
57847;BME280;43675;50.030;21.952;2023-09-19T02:46:26;98149.10;;;18.49;75.82
57847;BME280;43675;50.030;21.952;2023-09-19T02:48:53;98150.19;;;18.55;75.64
57847;BME280;43675;50.030;21.952;2023-09-19T02:51:20;98145.20;;;18.62;75.34
57847;BME280;43675;50.030;21.952;2023-09-19T02:53:46;98142.63;;;18.68;75.09
57847;BME280;43675;50.030;21.952;2023-09-19T02:56:13;98142.23;;;18.72;74.77
57847;BME280;43675;50.030;21.952;2023-09-19T02:58:39;98139.94;;;18.72;74.75
57847;BME280;43675;50.030;21.952;2023-09-19T03:01:10;98139.52;;;18.71;74.52
57847;BME280;43675;50.030;21.952;2023-09-19T03:03:36;98131.52;;;18.71;74.43
57847;BME280;43675;50.030;21.952;2023-09-19T03:06:03;98134.17;;;18.75;74.39
57847;BME280;43675;50.030;21.952;2023-09-19T03:08:29;98129.19;;;18.79;74.19
57847;BME280;43675;50.030;21.952;2023-09-19T03:10:56;98128.84;;;18.84;73.91
57847;BME280;43675;50.030;21.952;2023-09-19T03:13:23;98125.33;;;18.90;73.76
57847;BME280;43675;50.030;21.952;2023-09-19T03:15:49;98119.48;;;18.96;73.43
57847;BME280;43675;50.030;21.952;2023-09-19T03:18:16;98112.69;;;19.02;73.21
57847;BME280;43675;50.030;21.952;2023-09-19T03:20:43;98111.07;;;19.06;73.12
57847;BME280;43675;50.030;21.952;2023-09-19T03:23:09;98105.88;;;19.10;72.96
57847;BME280;43675;50.030;21.952;2023-09-19T03:25:36;98109.27;;;19.14;72.73
57847;BME280;43675;50.030;21.952;2023-09-19T03:28:03;98103.48;;;19.19;72.55
57847;BME280;43675;50.030;21.952;2023-09-19T03:30:30;98113.62;;;19.23;72.34
57847;BME280;43675;50.030;21.952;2023-09-19T03:32:56;98111.23;;;19.30;72.15
57847;BME280;43675;50.030;21.952;2023-09-19T03:35:23;98109.15;;;19.39;71.94
57847;BME280;43675;50.030;21.952;2023-09-19T03:37:49;98109.73;;;19.45;71.92
57847;BME280;43675;50.030;21.952;2023-09-19T03:40:16;98106.48;;;19.47;71.92
57847;BME280;43675;50.030;21.952;2023-09-19T03:42:43;98106.13;;;19.46;71.92
57847;BME280;43675;50.030;21.952;2023-09-19T03:45:09;98102.11;;;19.43;72.26
57847;BME280;43675;50.030;21.952;2023-09-19T03:47:36;98101.83;;;19.34;72.62
57847;BME280;43675;50.030;21.952;2023-09-19T03:50:03;98097.01;;;19.25;73.00
57847;BME280;43675;50.030;21.952;2023-09-19T03:52:29;98096.86;;;19.16;73.50
57847;BME280;43675;50.030;21.952;2023-09-19T03:54:56;98097.24;;;19.07;73.83
57847;BME280;43675;50.030;21.952;2023-09-19T03:57:23;98095.19;;;18.99;74.21
57847;BME280;43675;50.030;21.952;2023-09-19T03:59:49;98096.61;;;18.90;74.79
57847;BME280;43675;50.030;21.952;2023-09-19T04:02:16;98098.45;;;18.82;75.15
57847;BME280;43675;50.030;21.952;2023-09-19T04:04:42;98096.28;;;18.74;75.60
57847;BME280;43675;50.030;21.952;2023-09-19T04:07:09;98096.84;;;18.68;75.85
57847;BME280;43675;50.030;21.952;2023-09-19T04:09:35;98095.54;;;18.61;76.10
57847;BME280;43675;50.030;21.952;2023-09-19T04:12:02;98094.58;;;18.55;76.38
57847;BME280;43675;50.030;21.952;2023-09-19T04:14:29;98093.55;;;18.49;76.67
57847;BME280;43675;50.030;21.952;2023-09-19T04:16:55;98093.59;;;18.43;76.89
57847;BME280;43675;50.030;21.952;2023-09-19T04:19:22;98091.91;;;18.39;77.16
57847;BME280;43675;50.030;21.952;2023-09-19T04:21:49;98094.80;;;18.39;77.17
57847;BME280;43675;50.030;21.952;2023-09-19T04:24:15;98088.30;;;18.35;77.36
57847;BME280;43675;50.030;21.952;2023-09-19T04:26:42;98086.73;;;18.30;77.55
57847;BME280;43675;50.030;21.952;2023-09-19T04:29:08;98081.23;;;18.24;77.70
57847;BME280;43675;50.030;21.952;2023-09-19T04:31:35;98074.24;;;18.20;77.87
57847;BME280;43675;50.030;21.952;2023-09-19T04:34:02;98073.00;;;18.17;78.10
57847;BME280;43675;50.030;21.952;2023-09-19T04:36:29;98071.38;;;18.15;78.07
57847;BME280;43675;50.030;21.952;2023-09-19T04:38:55;98070.24;;;18.13;78.30
57847;BME280;43675;50.030;21.952;2023-09-19T04:41:22;98064.92;;;18.12;78.33
57847;BME280;43675;50.030;21.952;2023-09-19T04:43:48;98064.98;;;18.11;78.28
57847;BME280;43675;50.030;21.952;2023-09-19T04:46:15;98069.05;;;18.12;78.20
57847;BME280;43675;50.030;21.952;2023-09-19T04:48:41;98064.21;;;18.14;78.16
57847;BME280;43675;50.030;21.952;2023-09-19T04:51:08;98064.86;;;18.15;78.20
57847;BME280;43675;50.030;21.952;2023-09-19T04:53:35;98065.07;;;18.17;78.11
57847;BME280;43675;50.030;21.952;2023-09-19T04:56:01;98070.39;;;18.18;77.99
57847;BME280;43675;50.030;21.952;2023-09-19T04:58:28;98066.42;;;18.19;78.00
57847;BME280;43675;50.030;21.952;2023-09-19T05:00:55;98064.34;;;18.21;78.10
57847;BME280;43675;50.030;21.952;2023-09-19T05:03:21;98056.73;;;18.22;77.94
57847;BME280;43675;50.030;21.952;2023-09-19T05:05:48;98056.23;;;18.27;77.83
57847;BME280;43675;50.030;21.952;2023-09-19T05:08:14;98054.13;;;18.34;77.66
57847;BME280;43675;50.030;21.952;2023-09-19T05:10:41;98052.80;;;18.39;77.39
57847;BME280;43675;50.030;21.952;2023-09-19T05:13:08;98052.24;;;18.42;77.32
57847;BME280;43675;50.030;21.952;2023-09-19T05:15:34;98053.09;;;18.44;77.13
57847;BME280;43675;50.030;21.952;2023-09-19T05:18:01;98049.06;;;18.45;76.93
57847;BME280;43675;50.030;21.952;2023-09-19T05:20:28;98055.91;;;18.45;76.90
57847;BME280;43675;50.030;21.952;2023-09-19T05:23:12;98055.45;;;18.39;76.99
57847;BME280;43675;50.030;21.952;2023-09-19T05:25:39;98055.16;;;18.34;76.99
57847;BME280;43675;50.030;21.952;2023-09-19T05:28:07;98053.10;;;18.33;77.06
57847;BME280;43675;50.030;21.952;2023-09-19T05:30:34;98050.41;;;18.37;76.91
57847;BME280;43675;50.030;21.952;2023-09-19T05:33:02;98044.44;;;18.36;76.93
57847;BME280;43675;50.030;21.952;2023-09-19T05:35:29;98044.48;;;18.40;76.86
57847;BME280;43675;50.030;21.952;2023-09-19T05:37:55;98040.33;;;18.46;76.73
57847;BME280;43675;50.030;21.952;2023-09-19T05:40:22;98044.98;;;18.47;76.82
57847;BME280;43675;50.030;21.952;2023-09-19T05:42:49;98034.92;;;18.50;76.74
57847;BME280;43675;50.030;21.952;2023-09-19T05:45:15;98032.55;;;18.53;76.64
57847;BME280;43675;50.030;21.952;2023-09-19T05:47:42;98031.38;;;18.57;76.60
57847;BME280;43675;50.030;21.952;2023-09-19T05:50:09;98029.65;;;18.63;76.45
57847;BME280;43675;50.030;21.952;2023-09-19T05:52:36;98029.02;;;18.76;76.18
57847;BME280;43675;50.030;21.952;2023-09-19T05:55:06;98030.23;;;18.88;75.90
57847;BME280;43675;50.030;21.952;2023-09-19T05:57:34;98024.43;;;18.99;75.53
57847;BME280;43675;50.030;21.952;2023-09-19T06:00:01;98029.86;;;19.01;75.39
57847;BME280;43675;50.030;21.952;2023-09-19T06:02:28;98031.66;;;18.99;75.20
57847;BME280;43675;50.030;21.952;2023-09-19T06:04:55;98031.03;;;18.98;75.16
57847;BME280;43675;50.030;21.952;2023-09-19T06:07:22;98036.20;;;18.97;74.95
57847;BME280;43675;50.030;21.952;2023-09-19T06:09:49;98038.93;;;18.97;74.89
57847;BME280;43675;50.030;21.952;2023-09-19T06:12:15;98036.52;;;18.97;74.96
57847;BME280;43675;50.030;21.952;2023-09-19T06:14:42;98038.70;;;18.97;74.93
57847;BME280;43675;50.030;21.952;2023-09-19T06:17:09;98039.36;;;18.96;74.69
57847;BME280;43675;50.030;21.952;2023-09-19T06:19:36;98044.23;;;18.94;74.69
57847;BME280;43675;50.030;21.952;2023-09-19T06:22:03;98046.30;;;18.91;74.57
57847;BME280;43675;50.030;21.952;2023-09-19T06:24:29;98049.73;;;18.91;74.63
57847;BME280;43675;50.030;21.952;2023-09-19T06:26:56;98054.02;;;18.94;74.65
57847;BME280;43675;50.030;21.952;2023-09-19T06:29:23;98054.33;;;18.97;74.58
57847;BME280;43675;50.030;21.952;2023-09-19T06:31:49;98053.64;;;18.99;74.62
57847;BME280;43675;50.030;21.952;2023-09-19T06:34:16;98059.10;;;19.02;74.47
57847;BME280;43675;50.030;21.952;2023-09-19T06:36:42;98054.91;;;19.04;74.45
57847;BME280;43675;50.030;21.952;2023-09-19T06:39:09;98055.48;;;19.07;74.48
57847;BME280;43675;50.030;21.952;2023-09-19T06:41:37;98060.19;;;19.10;74.34
57847;BME280;43675;50.030;21.952;2023-09-19T06:44:04;98053.87;;;19.12;74.20
57847;BME280;43675;50.030;21.952;2023-09-19T06:46:31;98055.59;;;19.14;74.13
57847;BME280;43675;50.030;21.952;2023-09-19T06:48:57;98054.77;;;19.16;73.81
57847;BME280;43675;50.030;21.952;2023-09-19T06:51:24;98057.66;;;19.20;73.79
57847;BME280;43675;50.030;21.952;2023-09-19T06:53:51;98059.73;;;19.25;73.78
57847;BME280;43675;50.030;21.952;2023-09-19T06:56:17;98058.93;;;19.30;73.76
57847;BME280;43675;50.030;21.952;2023-09-19T06:58:44;98051.98;;;19.36;73.57
57847;BME280;43675;50.030;21.952;2023-09-19T07:01:10;98054.17;;;19.43;73.33
57847;BME280;43675;50.030;21.952;2023-09-19T07:03:37;98051.39;;;19.49;73.25
57847;BME280;43675;50.030;21.952;2023-09-19T07:06:04;98041.33;;;19.53;73.10
57847;BME280;43675;50.030;21.952;2023-09-19T07:08:30;98045.70;;;19.58;72.84
57847;BME280;43675;50.030;21.952;2023-09-19T07:10:57;98051.33;;;19.65;72.90
57847;BME280;43675;50.030;21.952;2023-09-19T07:13:23;98054.11;;;19.76;72.61
57847;BME280;43675;50.030;21.952;2023-09-19T07:15:50;98047.59;;;19.90;72.44
57847;BME280;43675;50.030;21.952;2023-09-19T07:18:17;98047.92;;;20.07;72.03
57847;BME280;43675;50.030;21.952;2023-09-19T07:20:45;98052.89;;;20.25;71.57
57847;BME280;43675;50.030;21.952;2023-09-19T07:23:12;98049.47;;;20.43;70.94
57847;BME280;43675;50.030;21.952;2023-09-19T07:25:38;98059.38;;;20.63;70.49
57847;BME280;43675;50.030;21.952;2023-09-19T07:28:06;98061.33;;;20.83;70.00
57847;BME280;43675;50.030;21.952;2023-09-19T07:30:36;98061.36;;;20.98;69.40
57847;BME280;43675;50.030;21.952;2023-09-19T07:33:03;98066.94;;;21.13;69.10
57847;BME280;43675;50.030;21.952;2023-09-19T07:35:30;98070.95;;;21.26;68.83
57847;BME280;43675;50.030;21.952;2023-09-19T07:37:57;98070.45;;;21.40;68.47
57847;BME280;43675;50.030;21.952;2023-09-19T07:40:23;98065.56;;;21.53;68.14
57847;BME280;43675;50.030;21.952;2023-09-19T07:42:50;98070.54;;;21.62;67.82
57847;BME280;43675;50.030;21.952;2023-09-19T07:45:17;98071.26;;;21.67;67.57
57847;BME280;43675;50.030;21.952;2023-09-19T07:47:44;98073.64;;;21.74;67.30
57847;BME280;43675;50.030;21.952;2023-09-19T07:50:11;98075.30;;;21.79;67.15
57847;BME280;43675;50.030;21.952;2023-09-19T07:52:37;98074.59;;;21.82;67.08
57847;BME280;43675;50.030;21.952;2023-09-19T07:55:06;98071.38;;;21.79;66.80
57847;BME280;43675;50.030;21.952;2023-09-19T07:57:33;98071.39;;;21.73;66.79
57847;BME280;43675;50.030;21.952;2023-09-19T07:59:59;98075.60;;;21.63;66.65
57847;BME280;43675;50.030;21.952;2023-09-19T08:02:26;98076.19;;;21.55;66.66
57847;BME280;43675;50.030;21.952;2023-09-19T08:04:52;98074.95;;;21.43;66.67
57847;BME280;43675;50.030;21.952;2023-09-19T08:07:19;98073.73;;;21.29;66.76
57847;BME280;43675;50.030;21.952;2023-09-19T08:09:45;98069.89;;;21.17;67.00
57847;BME280;43675;50.030;21.952;2023-09-19T08:12:12;98074.61;;;21.07;67.20
57847;BME280;43675;50.030;21.952;2023-09-19T08:14:39;98071.03;;;20.95;67.44
57847;BME280;43675;50.030;21.952;2023-09-19T08:17:05;98074.95;;;20.80;67.78
57847;BME280;43675;50.030;21.952;2023-09-19T08:19:32;98070.64;;;20.68;67.88
57847;BME280;43675;50.030;21.952;2023-09-19T08:21:58;98073.91;;;20.61;68.15
57847;BME280;43675;50.030;21.952;2023-09-19T08:24:26;98071.64;;;20.56;68.48
57847;BME280;43675;50.030;21.952;2023-09-19T08:26:52;98073.21;;;20.52;68.55
57847;BME280;43675;50.030;21.952;2023-09-19T08:29:19;98072.64;;;20.47;68.87
57847;BME280;43675;50.030;21.952;2023-09-19T08:31:46;98073.04;;;20.41;68.89
57847;BME280;43675;50.030;21.952;2023-09-19T08:34:13;98072.35;;;20.34;69.10
57847;BME280;43675;50.030;21.952;2023-09-19T08:36:40;98067.55;;;20.31;69.20
57847;BME280;43675;50.030;21.952;2023-09-19T08:39:06;98067.73;;;20.29;69.23
57847;BME280;43675;50.030;21.952;2023-09-19T08:41:33;98068.94;;;20.29;69.38
57847;BME280;43675;50.030;21.952;2023-09-19T08:44:00;98067.13;;;20.29;69.22
57847;BME280;43675;50.030;21.952;2023-09-19T08:46:28;98065.92;;;20.29;69.28
57847;BME280;43675;50.030;21.952;2023-09-19T08:49:11;98071.61;;;20.28;69.42
57847;BME280;43675;50.030;21.952;2023-09-19T08:51:42;98072.59;;;20.27;69.50
57847;BME280;43675;50.030;21.952;2023-09-19T08:54:17;98075.16;;;20.26;69.54
57847;BME280;43675;50.030;21.952;2023-09-19T08:56:48;98074.05;;;20.23;69.56
57847;BME280;43675;50.030;21.952;2023-09-19T08:59:17;98072.37;;;20.18;69.74
57847;BME280;43675;50.030;21.952;2023-09-19T09:01:47;98074.34;;;20.12;69.89
57847;BME280;43675;50.030;21.952;2023-09-19T09:04:15;98074.60;;;20.09;70.09
57847;BME280;43675;50.030;21.952;2023-09-19T09:06:42;98076.37;;;20.08;70.25
57847;BME280;43675;50.030;21.952;2023-09-19T09:09:10;98076.16;;;20.10;70.37
57847;BME280;43675;50.030;21.952;2023-09-19T09:11:38;98080.34;;;20.16;70.43
57847;BME280;43675;50.030;21.952;2023-09-19T09:14:06;98079.73;;;20.22;70.35
57847;BME280;43675;50.030;21.952;2023-09-19T09:16:33;98080.10;;;20.30;70.22
57847;BME280;43675;50.030;21.952;2023-09-19T09:19:00;98080.48;;;20.39;70.13
57847;BME280;43675;50.030;21.952;2023-09-19T09:21:27;98082.56;;;20.46;69.92
57847;BME280;43675;50.030;21.952;2023-09-19T09:23:54;98086.29;;;20.50;69.77
57847;BME280;43675;50.030;21.952;2023-09-19T09:29:06;98087.11;;;20.44;69.60
57847;BME280;43675;50.030;21.952;2023-09-19T09:31:33;98088.59;;;20.40;69.55
57847;BME280;43675;50.030;21.952;2023-09-19T09:33:59;98087.99;;;20.35;69.53
57847;BME280;43675;50.030;21.952;2023-09-19T09:36:39;98091.20;;;20.30;69.57
57847;BME280;43675;50.030;21.952;2023-09-19T09:39:06;98092.98;;;20.21;69.65
57847;BME280;43675;50.030;21.952;2023-09-19T09:41:36;98089.95;;;20.13;69.72
57847;BME280;43675;50.030;21.952;2023-09-19T09:44:21;98091.67;;;20.03;69.88
57847;BME280;43675;50.030;21.952;2023-09-19T09:46:48;98092.56;;;19.91;70.10
57847;BME280;43675;50.030;21.952;2023-09-19T09:49:22;98095.14;;;19.84;70.28
57847;BME280;43675;50.030;21.952;2023-09-19T09:52:11;98095.05;;;19.76;70.28
57847;BME280;43675;50.030;21.952;2023-09-19T09:54:37;98094.74;;;19.69;70.64
57847;BME280;43675;50.030;21.952;2023-09-19T09:57:04;98098.65;;;19.65;70.75
57847;BME280;43675;50.030;21.952;2023-09-19T10:02:10;98103.96;;;19.49;71.32
57847;BME280;43675;50.030;21.952;2023-09-19T10:04:36;98105.23;;;19.41;71.62
57847;BME280;43675;50.030;21.952;2023-09-19T10:07:03;98107.77;;;19.31;71.85
57847;BME280;43675;50.030;21.952;2023-09-19T10:09:30;98109.80;;;19.23;72.14
57847;BME280;43675;50.030;21.952;2023-09-19T10:12:06;98111.16;;;19.17;72.60
57847;BME280;43675;50.030;21.952;2023-09-19T10:14:36;98111.55;;;19.09;72.88
57847;BME280;43675;50.030;21.952;2023-09-19T10:17:05;98117.52;;;19.00;73.35
57847;BME280;43675;50.030;21.952;2023-09-19T10:22:05;98117.70;;;18.82;74.39
57847;BME280;43675;50.030;21.952;2023-09-19T10:24:33;98118.50;;;18.77;74.77
57847;BME280;43675;50.030;21.952;2023-09-19T10:27:01;98118.02;;;18.74;75.14
57847;BME280;43675;50.030;21.952;2023-09-19T10:29:29;98118.05;;;18.71;75.35
57847;BME280;43675;50.030;21.952;2023-09-19T10:31:59;98114.73;;;18.69;75.67
57847;BME280;43675;50.030;21.952;2023-09-19T10:34:27;98114.58;;;18.69;75.91
57847;BME280;43675;50.030;21.952;2023-09-19T10:36:55;98115.00;;;18.72;76.09
57847;BME280;43675;50.030;21.952;2023-09-19T10:39:23;98107.68;;;18.75;76.28
57847;BME280;43675;50.030;21.952;2023-09-19T10:41:51;98111.23;;;18.82;76.41
57847;BME280;43675;50.030;21.952;2023-09-19T10:44:27;98114.29;;;18.90;76.46
57847;BME280;43675;50.030;21.952;2023-09-19T10:46:57;98117.48;;;19.00;76.36
57847;BME280;43675;50.030;21.952;2023-09-19T10:49:24;98113.30;;;19.07;76.14
57847;BME280;43675;50.030;21.952;2023-09-19T10:51:54;98118.16;;;19.12;76.04
57847;BME280;43675;50.030;21.952;2023-09-19T10:54:24;98117.58;;;19.17;76.01
57847;BME280;43675;50.030;21.952;2023-09-19T10:56:53;98116.80;;;19.21;75.93
57847;BME280;43675;50.030;21.952;2023-09-19T10:59:21;98120.75;;;19.22;75.84
57847;BME280;43675;50.030;21.952;2023-09-19T11:01:52;98115.02;;;19.23;75.93
57847;BME280;43675;50.030;21.952;2023-09-19T11:04:38;98113.61;;;19.23;75.92
57847;BME280;43675;50.030;21.952;2023-09-19T11:07:11;98115.02;;;19.25;76.05
57847;BME280;43675;50.030;21.952;2023-09-19T11:15:03;98106.47;;;19.42;76.03
57847;BME280;43675;50.030;21.952;2023-09-19T11:17:31;98101.52;;;19.49;75.79
57847;BME280;43675;50.030;21.952;2023-09-19T11:30:35;98088.39;;;19.99;75.40
57847;BME280;43675;50.030;21.952;2023-09-19T11:36:11;98084.43;;;20.20;74.96
57847;BME280;43675;50.030;21.952;2023-09-19T11:46:26;98090.04;;;20.42;73.75
57847;BME280;43675;50.030;21.952;2023-09-19T11:48:53;98088.66;;;20.34;73.63
57847;BME280;43675;50.030;21.952;2023-09-19T11:51:22;98087.89;;;20.23;73.85
57847;BME280;43675;50.030;21.952;2023-09-19T11:53:50;98086.02;;;20.15;73.89
57847;BME280;43675;50.030;21.952;2023-09-19T11:56:22;98091.70;;;20.04;74.18
57847;BME280;43675;50.030;21.952;2023-09-19T11:58:50;98090.46;;;19.95;74.38
57847;BME280;43675;50.030;21.952;2023-09-19T12:01:31;98091.86;;;19.85;74.35
57847;BME280;43675;50.030;21.952;2023-09-19T12:03:59;98097.25;;;19.74;74.56
57847;BME280;43675;50.030;21.952;2023-09-19T12:06:27;98095.94;;;19.64;74.70
57847;BME280;43675;50.030;21.952;2023-09-19T12:08:55;98094.95;;;19.53;74.95
57847;BME280;43675;50.030;21.952;2023-09-19T12:11:22;98097.09;;;19.42;75.40
57847;BME280;43675;50.030;21.952;2023-09-19T12:13:50;98098.23;;;19.35;75.77
57847;BME280;43675;50.030;21.952;2023-09-19T12:16:19;98097.95;;;19.29;75.79
57847;BME280;43675;50.030;21.952;2023-09-19T12:18:46;98098.16;;;19.24;76.03
57847;BME280;43675;50.030;21.952;2023-09-19T12:21:31;98099.29;;;19.19;76.43
57847;BME280;43675;50.030;21.952;2023-09-19T12:24:14;98104.14;;;19.11;76.59
57847;BME280;43675;50.030;21.952;2023-09-19T12:26:42;98109.84;;;19.04;76.94
57847;BME280;43675;50.030;21.952;2023-09-19T12:29:18;98108.89;;;19.00;77.24
57847;BME280;43675;50.030;21.952;2023-09-19T12:31:55;98107.27;;;18.95;77.59
57847;BME280;43675;50.030;21.952;2023-09-19T12:34:30;98111.04;;;18.96;77.76
57847;BME280;43675;50.030;21.952;2023-09-19T12:37:13;98111.48;;;18.96;77.98
57847;BME280;43675;50.030;21.952;2023-09-19T12:39:42;98112.34;;;18.97;78.12
57847;BME280;43675;50.030;21.952;2023-09-19T12:42:12;98116.94;;;18.92;78.38
57847;BME280;43675;50.030;21.952;2023-09-19T12:44:44;98117.63;;;18.87;78.91
57847;BME280;43675;50.030;21.952;2023-09-19T12:47:16;98116.84;;;18.81;79.20
57847;BME280;43675;50.030;21.952;2023-09-19T12:52:36;98116.64;;;18.56;80.18
57847;BME280;43675;50.030;21.952;2023-09-19T12:55:04;98124.49;;;18.44;80.79
57847;BME280;43675;50.030;21.952;2023-09-19T12:57:30;98121.22;;;18.34;81.55
57847;BME280;43675;50.030;21.952;2023-09-19T12:59:57;98127.60;;;18.30;81.97
57847;BME280;43675;50.030;21.952;2023-09-19T13:02:24;98129.20;;;18.25;82.51
57847;BME280;43675;50.030;21.952;2023-09-19T13:04:53;98127.41;;;18.20;83.05
57847;BME280;43675;50.030;21.952;2023-09-19T13:07:39;98138.23;;;18.19;83.42
57847;BME280;43675;50.030;21.952;2023-09-19T13:10:07;98139.23;;;18.11;83.46
57847;BME280;43675;50.030;21.952;2023-09-19T13:12:38;98142.89;;;18.03;83.93
57847;BME280;43675;50.030;21.952;2023-09-19T13:15:12;98149.15;;;17.94;84.27
57847;BME280;43675;50.030;21.952;2023-09-19T13:17:42;98154.42;;;17.87;84.53
57847;BME280;43675;50.030;21.952;2023-09-19T13:20:29;98155.79;;;17.77;84.14
57847;BME280;43675;50.030;21.952;2023-09-19T13:22:56;98161.23;;;17.72;84.93
57847;BME280;43675;50.030;21.952;2023-09-19T13:25:22;98164.81;;;17.69;85.48
57847;BME280;43675;50.030;21.952;2023-09-19T13:27:54;98166.55;;;17.66;85.95
57847;BME280;43675;50.030;21.952;2023-09-19T13:30:25;98169.86;;;17.66;86.27
57847;BME280;43675;50.030;21.952;2023-09-19T13:33:08;98173.13;;;17.63;86.48
57847;BME280;43675;50.030;21.952;2023-09-19T13:35:35;98171.71;;;17.60;86.65
57847;BME280;43675;50.030;21.952;2023-09-19T13:38:01;98176.36;;;17.58;86.93
57847;BME280;43675;50.030;21.952;2023-09-19T13:40:28;98171.26;;;17.55;87.11
57847;BME280;43675;50.030;21.952;2023-09-19T13:42:55;98175.10;;;17.53;87.20